sensor_id;sensor_type;location;lat;lon;timestamp;temperature;humidity
25949;DHT22;13961;51.178;4.448;2023-05-24T00:01:01;11.40;99.90
25949;DHT22;13961;51.178;4.448;2023-05-24T00:03:27;11.50;99.90
25949;DHT22;13961;51.178;4.448;2023-05-24T00:05:55;11.40;99.90
25949;DHT22;13961;51.178;4.448;2023-05-24T00:08:21;11.50;99.90
25949;DHT22;13961;51.178;4.448;2023-05-24T00:10:47;11.50;99.90
25949;DHT22;13961;51.178;4.448;2023-05-24T00:13:13;11.50;99.90
25949;DHT22;13961;51.178;4.448;2023-05-24T00:15:39;11.50;99.90
25949;DHT22;13961;51.178;4.448;2023-05-24T00:18:05;11.50;99.90
25949;DHT22;13961;51.178;4.448;2023-05-24T00:20:31;11.40;99.90
25949;DHT22;13961;51.178;4.448;2023-05-24T00:22:57;11.50;99.90
25949;DHT22;13961;51.178;4.448;2023-05-24T00:25:22;11.50;99.90
25949;DHT22;13961;51.178;4.448;2023-05-24T00:27:49;11.40;99.90
25949;DHT22;13961;51.178;4.448;2023-05-24T00:30:15;11.40;99.90
25949;DHT22;13961;51.178;4.448;2023-05-24T00:32:41;11.30;99.90
25949;DHT22;13961;51.178;4.448;2023-05-24T00:35:07;11.10;99.90
25949;DHT22;13961;51.178;4.448;2023-05-24T00:37:32;11.20;99.90
25949;DHT22;13961;51.178;4.448;2023-05-24T00:39:58;11.20;99.90
25949;DHT22;13961;51.178;4.448;2023-05-24T00:42:24;11.20;99.90
25949;DHT22;13961;51.178;4.448;2023-05-24T00:44:50;11.00;99.90
25949;DHT22;13961;51.178;4.448;2023-05-24T00:47:15;11.10;99.90
25949;DHT22;13961;51.178;4.448;2023-05-24T00:49:41;11.20;99.90
25949;DHT22;13961;51.178;4.448;2023-05-24T00:52:07;11.30;99.90
25949;DHT22;13961;51.178;4.448;2023-05-24T00:54:33;11.20;99.90
25949;DHT22;13961;51.178;4.448;2023-05-24T00:56:59;11.20;99.90
25949;DHT22;13961;51.178;4.448;2023-05-24T00:59:26;11.20;99.90
25949;DHT22;13961;51.178;4.448;2023-05-24T01:01:52;11.20;99.90
25949;DHT22;13961;51.178;4.448;2023-05-24T01:04:19;11.20;99.90
25949;DHT22;13961;51.178;4.448;2023-05-24T01:07:21;11.20;99.90
25949;DHT22;13961;51.178;4.448;2023-05-24T01:15:07;11.10;99.90
25949;DHT22;13961;51.178;4.448;2023-05-24T01:17:46;11.00;99.90
25949;DHT22;13961;51.178;4.448;2023-05-24T01:20:16;11.00;99.90
25949;DHT22;13961;51.178;4.448;2023-05-24T01:23:04;10.90;99.90
25949;DHT22;13961;51.178;4.448;2023-05-24T01:28:23;10.80;99.90
25949;DHT22;13961;51.178;4.448;2023-05-24T01:30:50;10.90;99.90
25949;DHT22;13961;51.178;4.448;2023-05-24T01:33:16;10.70;99.90
25949;DHT22;13961;51.178;4.448;2023-05-24T01:35:42;10.80;99.90
25949;DHT22;13961;51.178;4.448;2023-05-24T01:38:08;10.80;99.90
25949;DHT22;13961;51.178;4.448;2023-05-24T01:40:37;10.70;99.90
25949;DHT22;13961;51.178;4.448;2023-05-24T01:43:17;10.70;99.90
25949;DHT22;13961;51.178;4.448;2023-05-24T01:46:02;10.60;99.90
25949;DHT22;13961;51.178;4.448;2023-05-24T01:51:06;10.40;99.90
25949;DHT22;13961;51.178;4.448;2023-05-24T01:53:34;10.40;99.90
25949;DHT22;13961;51.178;4.448;2023-05-24T01:56:02;10.50;99.90
25949;DHT22;13961;51.178;4.448;2023-05-24T01:58:30;10.40;99.90
25949;DHT22;13961;51.178;4.448;2023-05-24T02:00:57;10.40;99.90
25949;DHT22;13961;51.178;4.448;2023-05-24T02:03:23;10.40;99.90
25949;DHT22;13961;51.178;4.448;2023-05-24T02:05:49;10.30;99.90
25949;DHT22;13961;51.178;4.448;2023-05-24T02:08:15;10.30;99.90
25949;DHT22;13961;51.178;4.448;2023-05-24T02:10:42;10.20;99.90
25949;DHT22;13961;51.178;4.448;2023-05-24T02:13:09;10.20;99.90
25949;DHT22;13961;51.178;4.448;2023-05-24T02:15:35;10.10;99.90
25949;DHT22;13961;51.178;4.448;2023-05-24T02:18:01;10.10;99.90
25949;DHT22;13961;51.178;4.448;2023-05-24T02:20:27;10.10;99.90
25949;DHT22;13961;51.178;4.448;2023-05-24T02:22:56;10.20;99.90
25949;DHT22;13961;51.178;4.448;2023-05-24T02:25:22;10.10;99.90
25949;DHT22;13961;51.178;4.448;2023-05-24T02:27:48;10.10;99.90
25949;DHT22;13961;51.178;4.448;2023-05-24T02:30:14;10.00;99.90
25949;DHT22;13961;51.178;4.448;2023-05-24T02:32:39;9.90;99.90
25949;DHT22;13961;51.178;4.448;2023-05-24T02:35:05;9.90;99.90
25949;DHT22;13961;51.178;4.448;2023-05-24T02:37:32;9.80;99.90
25949;DHT22;13961;51.178;4.448;2023-05-24T02:39:58;9.80;99.90
25949;DHT22;13961;51.178;4.448;2023-05-24T02:42:23;9.80;99.90
25949;DHT22;13961;51.178;4.448;2023-05-24T02:44:49;9.90;99.90
25949;DHT22;13961;51.178;4.448;2023-05-24T02:47:17;9.80;99.90
25949;DHT22;13961;51.178;4.448;2023-05-24T02:49:43;9.80;99.90
25949;DHT22;13961;51.178;4.448;2023-05-24T02:52:09;9.90;99.90
25949;DHT22;13961;51.178;4.448;2023-05-24T02:54:35;9.80;99.90
25949;DHT22;13961;51.178;4.448;2023-05-24T02:57:04;9.70;99.90
25949;DHT22;13961;51.178;4.448;2023-05-24T02:59:31;9.60;99.90
25949;DHT22;13961;51.178;4.448;2023-05-24T03:01:58;9.50;99.90
25949;DHT22;13961;51.178;4.448;2023-05-24T03:04:24;9.60;99.90
25949;DHT22;13961;51.178;4.448;2023-05-24T03:06:50;9.60;99.90
25949;DHT22;13961;51.178;4.448;2023-05-24T03:09:15;9.60;99.90
25949;DHT22;13961;51.178;4.448;2023-05-24T03:11:41;9.60;99.90
25949;DHT22;13961;51.178;4.448;2023-05-24T03:14:07;9.60;99.90
25949;DHT22;13961;51.178;4.448;2023-05-24T03:16:35;9.50;99.90
25949;DHT22;13961;51.178;4.448;2023-05-24T03:19:02;9.50;99.90
25949;DHT22;13961;51.178;4.448;2023-05-24T03:21:28;9.50;99.90
25949;DHT22;13961;51.178;4.448;2023-05-24T03:23:53;9.60;99.90
25949;DHT22;13961;51.178;4.448;2023-05-24T03:26:19;9.60;99.90
25949;DHT22;13961;51.178;4.448;2023-05-24T03:28:45;9.50;99.90
25949;DHT22;13961;51.178;4.448;2023-05-24T03:31:12;9.50;99.90
25949;DHT22;13961;51.178;4.448;2023-05-24T03:33:38;9.50;99.90
25949;DHT22;13961;51.178;4.448;2023-05-24T03:36:04;9.60;99.90
25949;DHT22;13961;51.178;4.448;2023-05-24T03:38:31;9.70;99.90
25949;DHT22;13961;51.178;4.448;2023-05-24T03:40:58;9.60;99.90
25949;DHT22;13961;51.178;4.448;2023-05-24T03:43:24;9.60;99.90
25949;DHT22;13961;51.178;4.448;2023-05-24T03:45:50;9.60;99.90
25949;DHT22;13961;51.178;4.448;2023-05-24T03:48:16;9.60;99.90
25949;DHT22;13961;51.178;4.448;2023-05-24T03:50:41;9.60;99.90
25949;DHT22;13961;51.178;4.448;2023-05-24T03:53:07;9.60;99.90
25949;DHT22;13961;51.178;4.448;2023-05-24T03:55:33;9.60;99.90
25949;DHT22;13961;51.178;4.448;2023-05-24T03:57:58;9.60;99.90
25949;DHT22;13961;51.178;4.448;2023-05-24T04:00:24;9.50;99.90
25949;DHT22;13961;51.178;4.448;2023-05-24T04:02:50;9.50;99.90
25949;DHT22;13961;51.178;4.448;2023-05-24T04:05:15;9.50;99.90
25949;DHT22;13961;51.178;4.448;2023-05-24T04:07:42;9.70;99.90
25949;DHT22;13961;51.178;4.448;2023-05-24T04:10:09;9.80;99.90
25949;DHT22;13961;51.178;4.448;2023-05-24T04:12:35;9.80;99.90
25949;DHT22;13961;51.178;4.448;2023-05-24T04:15:01;9.70;99.90
25949;DHT22;13961;51.178;4.448;2023-05-24T04:17:27;9.70;99.90
25949;DHT22;13961;51.178;4.448;2023-05-24T04:19:59;9.70;99.90
25949;DHT22;13961;51.178;4.448;2023-05-24T04:22:25;9.80;99.90
25949;DHT22;13961;51.178;4.448;2023-05-24T04:24:51;9.90;99.90
25949;DHT22;13961;51.178;4.448;2023-05-24T04:27:17;9.90;99.90
25949;DHT22;13961;51.178;4.448;2023-05-24T04:29:44;9.80;99.90
25949;DHT22;13961;51.178;4.448;2023-05-24T04:32:14;9.90;99.90
25949;DHT22;13961;51.178;4.448;2023-05-24T04:34:40;9.90;99.90
25949;DHT22;13961;51.178;4.448;2023-05-24T04:37:07;10.20;99.90
25949;DHT22;13961;51.178;4.448;2023-05-24T04:39:33;10.40;99.90
25949;DHT22;13961;51.178;4.448;2023-05-24T04:41:59;10.40;99.90
25949;DHT22;13961;51.178;4.448;2023-05-24T04:44:26;10.50;99.90
25949;DHT22;13961;51.178;4.448;2023-05-24T04:46:52;10.50;99.90
25949;DHT22;13961;51.178;4.448;2023-05-24T04:49:18;10.50;99.90
25949;DHT22;13961;51.178;4.448;2023-05-24T04:51:45;10.60;99.90
25949;DHT22;13961;51.178;4.448;2023-05-24T04:54:10;10.60;99.90
25949;DHT22;13961;51.178;4.448;2023-05-24T04:56:37;10.60;99.90
25949;DHT22;13961;51.178;4.448;2023-05-24T04:59:06;10.70;99.90
25949;DHT22;13961;51.178;4.448;2023-05-24T05:01:32;10.80;99.90
25949;DHT22;13961;51.178;4.448;2023-05-24T05:03:59;10.90;99.90
25949;DHT22;13961;51.178;4.448;2023-05-24T05:06:26;11.00;99.90
25949;DHT22;13961;51.178;4.448;2023-05-24T05:08:51;11.00;99.90
25949;DHT22;13961;51.178;4.448;2023-05-24T05:11:17;11.00;99.90
25949;DHT22;13961;51.178;4.448;2023-05-24T05:13:44;11.20;99.90
25949;DHT22;13961;51.178;4.448;2023-05-24T05:16:10;11.40;99.90
25949;DHT22;13961;51.178;4.448;2023-05-24T05:18:35;11.50;99.90
25949;DHT22;13961;51.178;4.448;2023-05-24T05:21:02;11.20;99.90
25949;DHT22;13961;51.178;4.448;2023-05-24T05:23:29;11.20;99.90
25949;DHT22;13961;51.178;4.448;2023-05-24T05:25:55;11.20;99.90
25949;DHT22;13961;51.178;4.448;2023-05-24T05:28:21;11.50;99.90
25949;DHT22;13961;51.178;4.448;2023-05-24T05:30:47;11.40;99.90
25949;DHT22;13961;51.178;4.448;2023-05-24T05:33:12;11.80;99.90
25949;DHT22;13961;51.178;4.448;2023-05-24T05:35:38;11.90;99.90
25949;DHT22;13961;51.178;4.448;2023-05-24T05:38:04;11.90;99.90
25949;DHT22;13961;51.178;4.448;2023-05-24T05:40:30;11.90;99.90
25949;DHT22;13961;51.178;4.448;2023-05-24T05:42:55;12.10;99.90
25949;DHT22;13961;51.178;4.448;2023-05-24T05:45:21;12.10;99.90
25949;DHT22;13961;51.178;4.448;2023-05-24T05:47:47;12.20;99.90
25949;DHT22;13961;51.178;4.448;2023-05-24T05:50:12;12.40;99.90
25949;DHT22;13961;51.178;4.448;2023-05-24T05:52:38;12.30;99.90
25949;DHT22;13961;51.178;4.448;2023-05-24T05:55:04;12.60;99.90
25949;DHT22;13961;51.178;4.448;2023-05-24T05:57:30;12.80;99.90
25949;DHT22;13961;51.178;4.448;2023-05-24T05:59:56;12.80;99.90
25949;DHT22;13961;51.178;4.448;2023-05-24T06:02:21;13.00;99.90
25949;DHT22;13961;51.178;4.448;2023-05-24T06:04:49;13.10;99.90
25949;DHT22;13961;51.178;4.448;2023-05-24T06:07:15;12.90;99.90
25949;DHT22;13961;51.178;4.448;2023-05-24T06:09:41;13.00;99.90
25949;DHT22;13961;51.178;4.448;2023-05-24T06:12:07;13.20;99.90
25949;DHT22;13961;51.178;4.448;2023-05-24T06:14:33;13.30;99.90
25949;DHT22;13961;51.178;4.448;2023-05-24T06:17:04;13.30;99.90
25949;DHT22;13961;51.178;4.448;2023-05-24T06:19:30;13.30;99.90
25949;DHT22;13961;51.178;4.448;2023-05-24T06:21:57;13.30;99.90
25949;DHT22;13961;51.178;4.448;2023-05-24T06:24:23;13.30;99.90
25949;DHT22;13961;51.178;4.448;2023-05-24T06:26:51;13.40;99.90
25949;DHT22;13961;51.178;4.448;2023-05-24T06:29:17;13.60;99.90
25949;DHT22;13961;51.178;4.448;2023-05-24T06:31:45;14.10;99.90
25949;DHT22;13961;51.178;4.448;2023-05-24T06:34:12;14.80;99.90
25949;DHT22;13961;51.178;4.448;2023-05-24T06:36:41;16.60;99.90
25949;DHT22;13961;51.178;4.448;2023-05-24T06:39:13;17.80;99.90
25949;DHT22;13961;51.178;4.448;2023-05-24T06:41:39;17.30;99.90
25949;DHT22;13961;51.178;4.448;2023-05-24T06:44:06;18.30;99.90
25949;DHT22;13961;51.178;4.448;2023-05-24T06:46:33;19.70;99.90
25949;DHT22;13961;51.178;4.448;2023-05-24T06:48:59;21.20;99.90
25949;DHT22;13961;51.178;4.448;2023-05-24T06:51:25;21.50;99.90
25949;DHT22;13961;51.178;4.448;2023-05-24T06:53:51;20.40;99.90
25949;DHT22;13961;51.178;4.448;2023-05-24T06:56:17;19.80;99.90
25949;DHT22;13961;51.178;4.448;2023-05-24T06:58:43;18.80;99.90
25949;DHT22;13961;51.178;4.448;2023-05-24T07:01:09;18.50;99.90
25949;DHT22;13961;51.178;4.448;2023-05-24T07:03:35;18.00;99.90
25949;DHT22;13961;51.178;4.448;2023-05-24T07:06:03;18.30;99.90
25949;DHT22;13961;51.178;4.448;2023-05-24T07:08:29;18.00;99.90
25949;DHT22;13961;51.178;4.448;2023-05-24T07:10:58;18.00;99.90
25949;DHT22;13961;51.178;4.448;2023-05-24T07:13:24;17.80;99.90
25949;DHT22;13961;51.178;4.448;2023-05-24T07:15:50;17.80;99.90
25949;DHT22;13961;51.178;4.448;2023-05-24T07:18:16;17.10;99.90
25949;DHT22;13961;51.178;4.448;2023-05-24T07:20:41;16.90;99.90
25949;DHT22;13961;51.178;4.448;2023-05-24T07:23:07;17.00;99.90
25949;DHT22;13961;51.178;4.448;2023-05-24T07:25:33;17.20;99.90
25949;DHT22;13961;51.178;4.448;2023-05-24T07:28:02;16.90;99.90
25949;DHT22;13961;51.178;4.448;2023-05-24T07:30:27;16.60;99.90
25949;DHT22;13961;51.178;4.448;2023-05-24T07:32:53;16.80;99.90
25949;DHT22;13961;51.178;4.448;2023-05-24T07:35:19;16.90;99.90
25949;DHT22;13961;51.178;4.448;2023-05-24T07:37:45;17.20;99.90
25949;DHT22;13961;51.178;4.448;2023-05-24T07:40:12;17.30;99.90
25949;DHT22;13961;51.178;4.448;2023-05-24T07:42:38;17.10;99.90
25949;DHT22;13961;51.178;4.448;2023-05-24T07:45:05;17.50;99.90
25949;DHT22;13961;51.178;4.448;2023-05-24T07:47:31;17.80;99.90
25949;DHT22;13961;51.178;4.448;2023-05-24T07:49:57;17.50;99.90
25949;DHT22;13961;51.178;4.448;2023-05-24T07:52:23;17.50;99.90
25949;DHT22;13961;51.178;4.448;2023-05-24T07:54:49;16.90;99.90
25949;DHT22;13961;51.178;4.448;2023-05-24T07:57:14;17.90;99.90
25949;DHT22;13961;51.178;4.448;2023-05-24T07:59:41;18.80;99.90
25949;DHT22;13961;51.178;4.448;2023-05-24T08:02:07;19.20;99.90
25949;DHT22;13961;51.178;4.448;2023-05-24T08:04:36;19.30;99.90
25949;DHT22;13961;51.178;4.448;2023-05-24T08:07:02;19.30;99.90
25949;DHT22;13961;51.178;4.448;2023-05-24T08:09:29;20.00;99.90
25949;DHT22;13961;51.178;4.448;2023-05-24T08:11:58;20.50;99.90
25949;DHT22;13961;51.178;4.448;2023-05-24T08:14:24;21.60;99.90
25949;DHT22;13961;51.178;4.448;2023-05-24T08:16:49;21.90;99.90
25949;DHT22;13961;51.178;4.448;2023-05-24T08:19:15;21.80;99.90
25949;DHT22;13961;51.178;4.448;2023-05-24T08:21:42;20.50;99.90
25949;DHT22;13961;51.178;4.448;2023-05-24T08:24:08;20.70;99.90
25949;DHT22;13961;51.178;4.448;2023-05-24T08:26:33;21.00;99.90
25949;DHT22;13961;51.178;4.448;2023-05-24T08:28:59;21.00;99.90
25949;DHT22;13961;51.178;4.448;2023-05-24T08:31:25;20.70;99.90
25949;DHT22;13961;51.178;4.448;2023-05-24T08:33:50;20.20;99.90
25949;DHT22;13961;51.178;4.448;2023-05-24T08:36:17;19.50;99.90
25949;DHT22;13961;51.178;4.448;2023-05-24T08:38:43;19.00;99.90
25949;DHT22;13961;51.178;4.448;2023-05-24T08:41:10;18.80;99.90
25949;DHT22;13961;51.178;4.448;2023-05-24T08:43:37;19.20;99.90
25949;DHT22;13961;51.178;4.448;2023-05-24T08:46:03;19.50;99.90
25949;DHT22;13961;51.178;4.448;2023-05-24T08:48:30;18.90;99.90
25949;DHT22;13961;51.178;4.448;2023-05-24T08:50:59;19.30;99.90
25949;DHT22;13961;51.178;4.448;2023-05-24T08:53:25;19.90;99.90
25949;DHT22;13961;51.178;4.448;2023-05-24T08:55:53;21.00;99.90
25949;DHT22;13961;51.178;4.448;2023-05-24T08:58:20;21.30;99.90
25949;DHT22;13961;51.178;4.448;2023-05-24T09:00:46;21.40;99.90
25949;DHT22;13961;51.178;4.448;2023-05-24T09:03:12;21.10;99.90
25949;DHT22;13961;51.178;4.448;2023-05-24T09:05:40;22.10;99.90
25949;DHT22;13961;51.178;4.448;2023-05-24T09:08:06;23.50;99.30
25949;DHT22;13961;51.178;4.448;2023-05-24T09:10:33;24.00;97.60
25949;DHT22;13961;51.178;4.448;2023-05-24T09:13:02;22.40;98.90
25949;DHT22;13961;51.178;4.448;2023-05-24T09:15:28;23.60;99.00
25949;DHT22;13961;51.178;4.448;2023-05-24T09:17:53;24.70;96.50
25949;DHT22;13961;51.178;4.448;2023-05-24T09:20:20;25.00;95.60
25949;DHT22;13961;51.178;4.448;2023-05-24T09:22:50;25.20;95.60
25949;DHT22;13961;51.178;4.448;2023-05-24T09:25:18;24.30;96.00
25949;DHT22;13961;51.178;4.448;2023-05-24T09:27:51;23.90;96.30
25949;DHT22;13961;51.178;4.448;2023-05-24T09:30:18;23.50;96.00
25949;DHT22;13961;51.178;4.448;2023-05-24T09:32:58;22.50;97.40
25949;DHT22;13961;51.178;4.448;2023-05-24T09:35:27;21.80;99.80
25949;DHT22;13961;51.178;4.448;2023-05-24T09:37:54;21.80;98.90
25949;DHT22;13961;51.178;4.448;2023-05-24T09:40:22;21.60;99.20
25949;DHT22;13961;51.178;4.448;2023-05-24T09:43:04;21.70;99.90
25949;DHT22;13961;51.178;4.448;2023-05-24T09:45:31;21.30;99.60
25949;DHT22;13961;51.178;4.448;2023-05-24T09:47:58;21.00;99.90
25949;DHT22;13961;51.178;4.448;2023-05-24T09:50:25;20.30;99.90
25949;DHT22;13961;51.178;4.448;2023-05-24T09:52:51;20.20;99.90
25949;DHT22;13961;51.178;4.448;2023-05-24T09:55:20;20.30;99.90
25949;DHT22;13961;51.178;4.448;2023-05-24T09:57:51;20.20;99.90
25949;DHT22;13961;51.178;4.448;2023-05-24T10:00:23;20.10;99.90
25949;DHT22;13961;51.178;4.448;2023-05-24T10:03:09;19.80;99.90
25949;DHT22;13961;51.178;4.448;2023-05-24T10:05:36;20.10;99.90
25949;DHT22;13961;51.178;4.448;2023-05-24T10:08:03;20.30;99.90
25949;DHT22;13961;51.178;4.448;2023-05-24T10:10:31;20.20;99.90
25949;DHT22;13961;51.178;4.448;2023-05-24T10:12:58;20.40;99.90
25949;DHT22;13961;51.178;4.448;2023-05-24T10:15:25;19.90;99.90
25949;DHT22;13961;51.178;4.448;2023-05-24T10:17:55;20.40;99.90
25949;DHT22;13961;51.178;4.448;2023-05-24T10:20:21;20.60;99.90
25949;DHT22;13961;51.178;4.448;2023-05-24T10:22:59;20.20;99.90
25949;DHT22;13961;51.178;4.448;2023-05-24T10:25:28;20.00;99.90
25949;DHT22;13961;51.178;4.448;2023-05-24T10:28:00;19.80;99.90
25949;DHT22;13961;51.178;4.448;2023-05-24T10:33:24;20.00;99.90
25949;DHT22;13961;51.178;4.448;2023-05-24T10:35:51;20.20;99.90
25949;DHT22;13961;51.178;4.448;2023-05-24T10:38:21;20.30;99.90
25949;DHT22;13961;51.178;4.448;2023-05-24T10:40:47;20.10;99.90
25949;DHT22;13961;51.178;4.448;2023-05-24T10:43:15;20.40;99.90
25949;DHT22;13961;51.178;4.448;2023-05-24T10:45:41;20.30;99.90
25949;DHT22;13961;51.178;4.448;2023-05-24T10:50:43;19.80;99.90
25949;DHT22;13961;51.178;4.448;2023-05-24T10:53:16;19.70;99.90
25949;DHT22;13961;51.178;4.448;2023-05-24T10:55:58;19.90;99.90
25949;DHT22;13961;51.178;4.448;2023-05-24T11:01:02;20.60;99.90
25949;DHT22;13961;51.178;4.448;2023-05-24T11:03:34;20.50;99.90
25949;DHT22;13961;51.178;4.448;2023-05-24T11:06:00;20.00;99.90
25949;DHT22;13961;51.178;4.448;2023-05-24T11:08:34;19.80;99.90
25949;DHT22;13961;51.178;4.448;2023-05-24T11:11:11;19.80;99.90
25949;DHT22;13961;51.178;4.448;2023-05-24T11:13:38;20.00;99.90
25949;DHT22;13961;51.178;4.448;2023-05-24T11:16:05;19.90;99.90
25949;DHT22;13961;51.178;4.448;2023-05-24T11:18:32;20.10;99.90
25949;DHT22;13961;51.178;4.448;2023-05-24T11:21:04;20.40;99.90
25949;DHT22;13961;51.178;4.448;2023-05-24T11:23:31;20.50;99.90
25949;DHT22;13961;51.178;4.448;2023-05-24T11:25:57;20.50;99.90
25949;DHT22;13961;51.178;4.448;2023-05-24T11:28:23;20.30;99.90
25949;DHT22;13961;51.178;4.448;2023-05-24T11:30:49;19.90;99.90
25949;DHT22;13961;51.178;4.448;2023-05-24T11:33:21;20.10;99.90
25949;DHT22;13961;51.178;4.448;2023-05-24T11:35:50;20.10;99.90
25949;DHT22;13961;51.178;4.448;2023-05-24T11:38:17;20.00;99.90
25949;DHT22;13961;51.178;4.448;2023-05-24T11:40:48;20.00;99.90
25949;DHT22;13961;51.178;4.448;2023-05-24T11:43:16;19.90;99.90
25949;DHT22;13961;51.178;4.448;2023-05-24T11:45:44;19.80;99.90
25949;DHT22;13961;51.178;4.448;2023-05-24T11:48:10;19.70;99.90
25949;DHT22;13961;51.178;4.448;2023-05-24T11:50:41;19.70;99.90
25949;DHT22;13961;51.178;4.448;2023-05-24T11:53:11;20.20;99.90
25949;DHT22;13961;51.178;4.448;2023-05-24T11:55:38;20.30;99.90
25949;DHT22;13961;51.178;4.448;2023-05-24T11:58:24;20.60;99.90
25949;DHT22;13961;51.178;4.448;2023-05-24T12:00:53;20.40;99.90
25949;DHT22;13961;51.178;4.448;2023-05-24T12:03:19;20.40;99.90
25949;DHT22;13961;51.178;4.448;2023-05-24T12:05:46;20.30;99.90
25949;DHT22;13961;51.178;4.448;2023-05-24T12:08:12;20.40;99.90
25949;DHT22;13961;51.178;4.448;2023-05-24T12:10:41;20.80;99.90
25949;DHT22;13961;51.178;4.448;2023-05-24T12:13:24;21.10;99.90
25949;DHT22;13961;51.178;4.448;2023-05-24T12:15:53;20.60;99.90
25949;DHT22;13961;51.178;4.448;2023-05-24T12:18:24;20.50;99.90
25949;DHT22;13961;51.178;4.448;2023-05-24T12:20:51;20.60;99.90
25949;DHT22;13961;51.178;4.448;2023-05-24T12:23:22;20.80;99.90
25949;DHT22;13961;51.178;4.448;2023-05-24T12:25:48;21.20;99.90
25949;DHT22;13961;51.178;4.448;2023-05-24T12:28:15;21.30;99.80
25949;DHT22;13961;51.178;4.448;2023-05-24T12:30:41;21.20;99.90
25949;DHT22;13961;51.178;4.448;2023-05-24T12:33:10;20.70;99.90
25949;DHT22;13961;51.178;4.448;2023-05-24T12:35:36;20.60;99.90
25949;DHT22;13961;51.178;4.448;2023-05-24T12:38:07;20.20;99.90
25949;DHT22;13961;51.178;4.448;2023-05-24T12:40:35;20.20;99.90
25949;DHT22;13961;51.178;4.448;2023-05-24T12:43:02;20.20;99.90
25949;DHT22;13961;51.178;4.448;2023-05-24T12:45:29;20.40;99.90
25949;DHT22;13961;51.178;4.448;2023-05-24T12:47:57;20.60;99.90
25949;DHT22;13961;51.178;4.448;2023-05-24T12:50:25;20.40;99.90
25949;DHT22;13961;51.178;4.448;2023-05-24T12:52:51;20.20;99.90
25949;DHT22;13961;51.178;4.448;2023-05-24T12:55:25;20.10;99.90
25949;DHT22;13961;51.178;4.448;2023-05-24T12:57:53;19.90;99.90
25949;DHT22;13961;51.178;4.448;2023-05-24T13:02:47;19.80;99.90
25949;DHT22;13961;51.178;4.448;2023-05-24T13:05:13;19.90;99.90
25949;DHT22;13961;51.178;4.448;2023-05-24T13:07:41;20.20;99.90
25949;DHT22;13961;51.178;4.448;2023-05-24T13:10:07;20.40;99.90
25949;DHT22;13961;51.178;4.448;2023-05-24T13:12:33;20.40;99.90
25949;DHT22;13961;51.178;4.448;2023-05-24T13:15:00;20.30;99.90
25949;DHT22;13961;51.178;4.448;2023-05-24T13:17:26;20.20;99.90
25949;DHT22;13961;51.178;4.448;2023-05-24T13:19:52;20.20;99.90
25949;DHT22;13961;51.178;4.448;2023-05-24T13:22:19;20.30;99.90
25949;DHT22;13961;51.178;4.448;2023-05-24T13:24:44;20.10;99.90
25949;DHT22;13961;51.178;4.448;2023-05-24T13:27:11;20.10;99.90
25949;DHT22;13961;51.178;4.448;2023-05-24T13:29:37;20.10;99.90
25949;DHT22;13961;51.178;4.448;2023-05-24T13:32:03;20.30;99.90
25949;DHT22;13961;51.178;4.448;2023-05-24T13:34:29;20.60;99.90
25949;DHT22;13961;51.178;4.448;2023-05-24T13:36:54;20.60;99.90
25949;DHT22;13961;51.178;4.448;2023-05-24T13:39:21;20.50;99.90
25949;DHT22;13961;51.178;4.448;2023-05-24T13:41:47;20.70;99.90
25949;DHT22;13961;51.178;4.448;2023-05-24T13:44:14;20.50;99.90
25949;DHT22;13961;51.178;4.448;2023-05-24T13:46:41;20.00;99.90
25949;DHT22;13961;51.178;4.448;2023-05-24T13:49:08;20.00;99.90
25949;DHT22;13961;51.178;4.448;2023-05-24T13:51:34;19.70;99.90
25949;DHT22;13961;51.178;4.448;2023-05-24T13:54:01;19.80;99.90
25949;DHT22;13961;51.178;4.448;2023-05-24T13:56:27;20.00;99.90
25949;DHT22;13961;51.178;4.448;2023-05-24T13:59:00;19.90;99.90
25949;DHT22;13961;51.178;4.448;2023-05-24T14:01:27;19.60;99.90
25949;DHT22;13961;51.178;4.448;2023-05-24T14:03:53;19.90;99.90
25949;DHT22;13961;51.178;4.448;2023-05-24T14:06:19;20.00;99.90
25949;DHT22;13961;51.178;4.448;2023-05-24T14:08:47;20.10;99.90
25949;DHT22;13961;51.178;4.448;2023-05-24T14:11:13;20.50;99.90
25949;DHT22;13961;51.178;4.448;2023-05-24T14:13:40;20.80;99.90
25949;DHT22;13961;51.178;4.448;2023-05-24T14:16:07;21.00;99.90
25949;DHT22;13961;51.178;4.448;2023-05-24T14:18:33;21.10;99.90
25949;DHT22;13961;51.178;4.448;2023-05-24T14:20:59;20.70;99.90
25949;DHT22;13961;51.178;4.448;2023-05-24T14:23:24;20.50;99.90
25949;DHT22;13961;51.178;4.448;2023-05-24T14:25:51;20.40;99.90
25949;DHT22;13961;51.178;4.448;2023-05-24T14:28:17;20.20;99.90
25949;DHT22;13961;51.178;4.448;2023-05-24T14:30:43;20.00;99.90
25949;DHT22;13961;51.178;4.448;2023-05-24T14:33:09;20.10;99.90
25949;DHT22;13961;51.178;4.448;2023-05-24T14:35:38;20.20;99.90
25949;DHT22;13961;51.178;4.448;2023-05-24T14:38:04;20.00;99.90
25949;DHT22;13961;51.178;4.448;2023-05-24T14:40:31;20.10;99.90
25949;DHT22;13961;51.178;4.448;2023-05-24T14:42:59;19.90;99.90
25949;DHT22;13961;51.178;4.448;2023-05-24T14:45:24;20.00;99.90
25949;DHT22;13961;51.178;4.448;2023-05-24T14:47:50;20.00;99.90
25949;DHT22;13961;51.178;4.448;2023-05-24T14:50:16;20.00;99.90
25949;DHT22;13961;51.178;4.448;2023-05-24T14:52:42;20.00;99.90
25949;DHT22;13961;51.178;4.448;2023-05-24T14:55:08;20.00;99.90
25949;DHT22;13961;51.178;4.448;2023-05-24T14:57:34;20.00;99.90
25949;DHT22;13961;51.178;4.448;2023-05-24T15:00:00;19.90;99.90
25949;DHT22;13961;51.178;4.448;2023-05-24T15:02:28;19.90;99.90
25949;DHT22;13961;51.178;4.448;2023-05-24T15:04:54;19.80;99.90
25949;DHT22;13961;51.178;4.448;2023-05-24T15:07:20;19.60;99.90
25949;DHT22;13961;51.178;4.448;2023-05-24T15:09:48;19.60;99.90
25949;DHT22;13961;51.178;4.448;2023-05-24T15:12:14;19.60;99.90
25949;DHT22;13961;51.178;4.448;2023-05-24T15:14:40;19.60;99.90
25949;DHT22;13961;51.178;4.448;2023-05-24T15:17:06;19.60;99.90
25949;DHT22;13961;51.178;4.448;2023-05-24T15:19:31;19.50;99.90
25949;DHT22;13961;51.178;4.448;2023-05-24T15:21:57;19.70;99.90
25949;DHT22;13961;51.178;4.448;2023-05-24T15:24:23;19.70;99.90
25949;DHT22;13961;51.178;4.448;2023-05-24T15:26:48;19.80;99.90
25949;DHT22;13961;51.178;4.448;2023-05-24T15:29:14;19.80;99.90
25949;DHT22;13961;51.178;4.448;2023-05-24T15:31:41;19.80;99.90
25949;DHT22;13961;51.178;4.448;2023-05-24T15:34:06;20.00;99.90
25949;DHT22;13961;51.178;4.448;2023-05-24T15:36:33;20.00;99.90
25949;DHT22;13961;51.178;4.448;2023-05-24T15:38:59;20.00;99.90
25949;DHT22;13961;51.178;4.448;2023-05-24T15:41:24;19.70;99.90
25949;DHT22;13961;51.178;4.448;2023-05-24T15:43:50;19.90;99.90
25949;DHT22;13961;51.178;4.448;2023-05-24T15:46:19;19.60;99.90
25949;DHT22;13961;51.178;4.448;2023-05-24T15:48:45;19.20;99.90
25949;DHT22;13961;51.178;4.448;2023-05-24T15:51:11;19.10;99.90
25949;DHT22;13961;51.178;4.448;2023-05-24T15:53:37;19.00;99.90